sensor_id;sensor_type;location;lat;lon;timestamp;pressure;altitude;pressure_sealevel;temperature;humidity
45441;BME280;31189;38.790;-77.084;2022-12-22T00:00:57;102889.09;;;6.30;35.92
45441;BME280;31189;38.790;-77.084;2022-12-22T00:03:36;102892.97;;;7.24;35.00
45441;BME280;31189;38.790;-77.084;2022-12-22T00:06:09;102894.55;;;6.95;35.12
45441;BME280;31189;38.790;-77.084;2022-12-22T00:08:41;102900.54;;;6.78;35.48
45441;BME280;31189;38.790;-77.084;2022-12-22T00:11:14;102904.52;;;6.65;35.57
45441;BME280;31189;38.790;-77.084;2022-12-22T00:13:52;102900.14;;;7.05;35.35
45441;BME280;31189;38.790;-77.084;2022-12-22T00:16:30;102903.63;;;6.94;34.88
45441;BME280;31189;38.790;-77.084;2022-12-22T00:19:12;102911.92;;;7.65;35.10
45441;BME280;31189;38.790;-77.084;2022-12-22T00:21:45;102915.75;;;7.38;34.59
45441;BME280;31189;38.790;-77.084;2022-12-22T00:24:23;102911.68;;;7.56;35.36
45441;BME280;31189;38.790;-77.084;2022-12-22T00:26:56;102913.34;;;6.87;35.54
45441;BME280;31189;38.790;-77.084;2022-12-22T00:29:36;102916.55;;;6.86;35.36
45441;BME280;31189;38.790;-77.084;2022-12-22T00:32:12;102908.28;;;6.84;35.59
45441;BME280;31189;38.790;-77.084;2022-12-22T00:34:46;102913.09;;;7.38;35.13
45441;BME280;31189;38.790;-77.084;2022-12-22T00:37:19;102911.21;;;6.74;35.71
45441;BME280;31189;38.790;-77.084;2022-12-22T00:39:57;102904.60;;;7.45;35.75
45441;BME280;31189;38.790;-77.084;2022-12-22T00:42:30;102902.59;;;6.91;35.61
45441;BME280;31189;38.790;-77.084;2022-12-22T00:45:04;102903.46;;;6.96;35.95
45441;BME280;31189;38.790;-77.084;2022-12-22T00:47:42;102908.42;;;7.29;35.60
45441;BME280;31189;38.790;-77.084;2022-12-22T00:50:16;102911.48;;;6.91;35.59
45441;BME280;31189;38.790;-77.084;2022-12-22T00:52:50;102913.15;;;6.75;35.72
45441;BME280;31189;38.790;-77.084;2022-12-22T00:55:30;102913.32;;;7.73;35.76
45441;BME280;31189;38.790;-77.084;2022-12-22T00:58:10;102910.76;;;6.73;35.99
45441;BME280;31189;38.790;-77.084;2022-12-22T01:00:45;102908.66;;;5.71;37.99
45441;BME280;31189;38.790;-77.084;2022-12-22T01:03:18;102911.71;;;5.58;38.27
45441;BME280;31189;38.790;-77.084;2022-12-22T01:05:46;102908.94;;;5.62;38.33
45441;BME280;31189;38.790;-77.084;2022-12-22T01:08:19;102903.33;;;5.90;37.91
45441;BME280;31189;38.790;-77.084;2022-12-22T01:10:52;102903.21;;;5.51;38.07
45441;BME280;31189;38.790;-77.084;2022-12-22T01:13:31;102899.98;;;5.92;38.35
45441;BME280;31189;38.790;-77.084;2022-12-22T01:16:04;102897.17;;;5.55;38.80
45441;BME280;31189;38.790;-77.084;2022-12-22T01:18:37;102897.47;;;5.66;38.26
45441;BME280;31189;38.790;-77.084;2022-12-22T01:21:10;102899.71;;;5.98;37.98
45441;BME280;31189;38.790;-77.084;2022-12-22T01:23:47;102901.42;;;7.21;37.26
45441;BME280;31189;38.790;-77.084;2022-12-22T01:26:20;102896.18;;;5.82;37.68
45441;BME280;31189;38.790;-77.084;2022-12-22T01:28:53;102896.38;;;6.13;37.73
45441;BME280;31189;38.790;-77.084;2022-12-22T01:31:29;102894.37;;;6.30;37.32
45441;BME280;31189;38.790;-77.084;2022-12-22T01:34:08;102890.60;;;5.42;38.84
45441;BME280;31189;38.790;-77.084;2022-12-22T01:36:42;102887.11;;;5.34;39.11
45441;BME280;31189;38.790;-77.084;2022-12-22T01:39:14;102889.90;;;6.05;38.45
45441;BME280;31189;38.790;-77.084;2022-12-22T01:41:42;102887.98;;;5.41;38.64
45441;BME280;31189;38.790;-77.084;2022-12-22T01:44:21;102885.43;;;5.73;38.61
45441;BME280;31189;38.790;-77.084;2022-12-22T01:47:30;102882.05;;;5.71;38.33
45441;BME280;31189;38.790;-77.084;2022-12-22T01:50:09;102883.48;;;5.32;39.45
45441;BME280;31189;38.790;-77.084;2022-12-22T01:52:42;102880.03;;;4.33;40.92
45441;BME280;31189;38.790;-77.084;2022-12-22T01:55:19;102876.93;;;3.88;41.69
45441;BME280;31189;38.790;-77.084;2022-12-22T01:57:52;102878.77;;;4.12;41.77
45441;BME280;31189;38.790;-77.084;2022-12-22T02:00:26;102880.16;;;4.23;40.61
45441;BME280;31189;38.790;-77.084;2022-12-22T02:03:00;102880.96;;;2.97;43.75
45441;BME280;31189;38.790;-77.084;2022-12-22T02:05:35;102882.51;;;2.85;44.20
45441;BME280;31189;38.790;-77.084;2022-12-22T02:08:20;102880.67;;;4.06;43.04
45441;BME280;31189;38.790;-77.084;2022-12-22T02:11:04;102881.75;;;3.86;42.50
45441;BME280;31189;38.790;-77.084;2022-12-22T02:13:48;102884.63;;;4.73;41.01
45441;BME280;31189;38.790;-77.084;2022-12-22T02:16:34;102893.05;;;5.18;41.19
45441;BME280;31189;38.790;-77.084;2022-12-22T02:19:21;102903.42;;;3.46;43.37
45441;BME280;31189;38.790;-77.084;2022-12-22T02:22:04;102901.54;;;3.90;43.39
45441;BME280;31189;38.790;-77.084;2022-12-22T02:24:39;102897.49;;;4.00;42.71
45441;BME280;31189;38.790;-77.084;2022-12-22T02:27:15;102903.21;;;3.75;43.77
45441;BME280;31189;38.790;-77.084;2022-12-22T02:29:50;102913.45;;;4.10;42.89
45441;BME280;31189;38.790;-77.084;2022-12-22T02:32:33;102911.88;;;4.92;42.69
45441;BME280;31189;38.790;-77.084;2022-12-22T02:35:11;102915.29;;;4.23;43.04
45441;BME280;31189;38.790;-77.084;2022-12-22T02:37:57;102920.63;;;4.76;42.31
45441;BME280;31189;38.790;-77.084;2022-12-22T02:40:34;102923.81;;;4.42;42.08
45441;BME280;31189;38.790;-77.084;2022-12-22T02:43:26;102929.27;;;3.13;43.77
45441;BME280;31189;38.790;-77.084;2022-12-22T02:46:06;102929.02;;;3.94;43.19
45441;BME280;31189;38.790;-77.084;2022-12-22T02:48:50;102926.87;;;5.00;42.84
45441;BME280;31189;38.790;-77.084;2022-12-22T02:51:27;102928.22;;;4.08;43.66
45441;BME280;31189;38.790;-77.084;2022-12-22T02:53:58;102922.15;;;3.70;43.49
45441;BME280;31189;38.790;-77.084;2022-12-22T02:56:31;102918.97;;;3.86;43.34
45441;BME280;31189;38.790;-77.084;2022-12-22T02:59:05;102915.47;;;3.72;43.85
45441;BME280;31189;38.790;-77.084;2022-12-22T03:01:39;102919.12;;;3.47;44.18
45441;BME280;31189;38.790;-77.084;2022-12-22T03:04:08;102919.40;;;3.71;44.68
45441;BME280;31189;38.790;-77.084;2022-12-22T03:06:40;102917.43;;;3.96;43.75
45441;BME280;31189;38.790;-77.084;2022-12-22T03:09:13;102920.46;;;3.70;44.42
45441;BME280;31189;38.790;-77.084;2022-12-22T03:11:41;102924.24;;;4.38;42.94
45441;BME280;31189;38.790;-77.084;2022-12-22T03:14:10;102919.09;;;4.20;43.02
45441;BME280;31189;38.790;-77.084;2022-12-22T03:16:37;102916.55;;;3.94;44.39
45441;BME280;31189;38.790;-77.084;2022-12-22T03:19:05;102915.22;;;3.24;45.85
45441;BME280;31189;38.790;-77.084;2022-12-22T03:21:33;102913.40;;;2.83;45.85
45441;BME280;31189;38.790;-77.084;2022-12-22T03:24:01;102913.24;;;4.12;44.73
45441;BME280;31189;38.790;-77.084;2022-12-22T03:26:29;102918.02;;;4.50;43.46
45441;BME280;31189;38.790;-77.084;2022-12-22T03:28:57;102924.04;;;4.06;43.85
45441;BME280;31189;38.790;-77.084;2022-12-22T03:31:25;102925.10;;;4.85;42.57
45441;BME280;31189;38.790;-77.084;2022-12-22T03:33:53;102925.77;;;4.42;42.93
45441;BME280;31189;38.790;-77.084;2022-12-22T03:36:21;102929.27;;;4.64;42.88
45441;BME280;31189;38.790;-77.084;2022-12-22T03:38:48;102929.28;;;4.57;43.59
45441;BME280;31189;38.790;-77.084;2022-12-22T03:41:16;102930.17;;;4.01;43.85
45441;BME280;31189;38.790;-77.084;2022-12-22T03:43:44;102931.00;;;4.71;42.39
45441;BME280;31189;38.790;-77.084;2022-12-22T03:46:14;102931.48;;;4.64;43.18
45441;BME280;31189;38.790;-77.084;2022-12-22T03:48:42;102930.92;;;4.58;42.90
45441;BME280;31189;38.790;-77.084;2022-12-22T03:51:11;102931.05;;;5.09;42.94
45441;BME280;31189;38.790;-77.084;2022-12-22T03:53:39;102926.76;;;5.15;41.98
45441;BME280;31189;38.790;-77.084;2022-12-22T03:56:07;102921.43;;;5.11;42.51
45441;BME280;31189;38.790;-77.084;2022-12-22T03:58:35;102921.83;;;4.93;42.58
45441;BME280;31189;38.790;-77.084;2022-12-22T04:01:05;102919.41;;;5.14;41.71
45441;BME280;31189;38.790;-77.084;2022-12-22T04:03:33;102921.78;;;3.60;43.71
45441;BME280;31189;38.790;-77.084;2022-12-22T04:06:02;102918.01;;;4.11;43.35
45441;BME280;31189;38.790;-77.084;2022-12-22T04:08:30;102914.49;;;4.88;42.96
45441;BME280;31189;38.790;-77.084;2022-12-22T04:10:58;102914.96;;;5.34;41.58
45441;BME280;31189;38.790;-77.084;2022-12-22T04:13:26;102914.23;;;5.25;40.86
45441;BME280;31189;38.790;-77.084;2022-12-22T04:15:54;102913.06;;;4.23;42.70
45441;BME280;31189;38.790;-77.084;2022-12-22T04:18:21;102914.87;;;4.68;42.52
45441;BME280;31189;38.790;-77.084;2022-12-22T04:20:49;102910.33;;;4.24;43.22
45441;BME280;31189;38.790;-77.084;2022-12-22T04:23:17;102908.86;;;3.74;43.90
45441;BME280;31189;38.790;-77.084;2022-12-22T04:25:45;102907.76;;;4.17;43.47
45441;BME280;31189;38.790;-77.084;2022-12-22T04:28:13;102904.32;;;3.47;44.60
45441;BME280;31189;38.790;-77.084;2022-12-22T04:30:41;102896.36;;;4.05;45.25
45441;BME280;31189;38.790;-77.084;2022-12-22T04:33:09;102894.63;;;4.13;44.92
45441;BME280;31189;38.790;-77.084;2022-12-22T04:35:36;102895.01;;;3.76;45.02
45441;BME280;31189;38.790;-77.084;2022-12-22T04:38:04;102897.71;;;3.18;46.39
45441;BME280;31189;38.790;-77.084;2022-12-22T04:40:32;102895.92;;;3.48;45.65
45441;BME280;31189;38.790;-77.084;2022-12-22T04:43:00;102891.93;;;4.18;44.41
45441;BME280;31189;38.790;-77.084;2022-12-22T04:45:27;102886.84;;;3.57;45.39
45441;BME280;31189;38.790;-77.084;2022-12-22T04:47:55;102887.27;;;3.90;45.01
45441;BME280;31189;38.790;-77.084;2022-12-22T04:50:23;102882.22;;;4.10;44.80
45441;BME280;31189;38.790;-77.084;2022-12-22T04:52:52;102874.02;;;4.66;43.08
45441;BME280;31189;38.790;-77.084;2022-12-22T04:55:20;102869.23;;;3.84;44.49
45441;BME280;31189;38.790;-77.084;2022-12-22T04:57:47;102857.74;;;4.72;43.65
45441;BME280;31189;38.790;-77.084;2022-12-22T05:00:16;102845.74;;;3.95;44.33
45441;BME280;31189;38.790;-77.084;2022-12-22T05:02:45;102839.68;;;4.55;43.83
45441;BME280;31189;38.790;-77.084;2022-12-22T05:05:13;102835.94;;;4.91;43.27
45441;BME280;31189;38.790;-77.084;2022-12-22T05:07:41;102834.08;;;4.44;43.75
45441;BME280;31189;38.790;-77.084;2022-12-22T05:10:10;102833.53;;;3.89;45.07
45441;BME280;31189;38.790;-77.084;2022-12-22T05:12:38;102833.05;;;4.56;44.14
45441;BME280;31189;38.790;-77.084;2022-12-22T05:15:06;102835.55;;;4.73;43.13
45441;BME280;31189;38.790;-77.084;2022-12-22T05:17:34;102838.45;;;3.21;45.36
45441;BME280;31189;38.790;-77.084;2022-12-22T05:20:02;102831.59;;;3.24;45.93
45441;BME280;31189;38.790;-77.084;2022-12-22T05:22:30;102822.22;;;3.68;45.20
45441;BME280;31189;38.790;-77.084;2022-12-22T05:24:58;102820.44;;;4.32;44.50
45441;BME280;31189;38.790;-77.084;2022-12-22T05:27:25;102825.43;;;3.87;45.29
45441;BME280;31189;38.790;-77.084;2022-12-22T05:29:53;102821.68;;;4.45;44.93
45441;BME280;31189;38.790;-77.084;2022-12-22T05:32:21;102817.91;;;3.78;44.81
45441;BME280;31189;38.790;-77.084;2022-12-22T05:34:49;102811.98;;;3.93;45.31
45441;BME280;31189;38.790;-77.084;2022-12-22T05:37:17;102796.39;;;3.65;45.31
45441;BME280;31189;38.790;-77.084;2022-12-22T05:39:45;102780.63;;;4.14;44.98
45441;BME280;31189;38.790;-77.084;2022-12-22T05:42:13;102778.11;;;4.69;43.63
45441;BME280;31189;38.790;-77.084;2022-12-22T05:44:41;102782.27;;;4.45;43.93
45441;BME280;31189;38.790;-77.084;2022-12-22T05:47:09;102787.68;;;3.56;45.55
45441;BME280;31189;38.790;-77.084;2022-12-22T05:49:36;102789.01;;;4.31;44.66
45441;BME280;31189;38.790;-77.084;2022-12-22T05:52:04;102795.24;;;3.83;45.21
45441;BME280;31189;38.790;-77.084;2022-12-22T05:54:32;102790.35;;;3.48;46.09
45441;BME280;31189;38.790;-77.084;2022-12-22T05:57:00;102787.29;;;4.09;45.63
45441;BME280;31189;38.790;-77.084;2022-12-22T05:59:28;102791.44;;;3.98;45.19
45441;BME280;31189;38.790;-77.084;2022-12-22T06:01:55;102803.47;;;3.01;48.36
45441;BME280;31189;38.790;-77.084;2022-12-22T06:04:23;102800.92;;;3.64;46.99
45441;BME280;31189;38.790;-77.084;2022-12-22T06:06:51;102796.04;;;3.65;47.60
45441;BME280;31189;38.790;-77.084;2022-12-22T06:09:19;102796.60;;;3.20;48.17
45441;BME280;31189;38.790;-77.084;2022-12-22T06:11:47;102798.55;;;3.36;47.69
45441;BME280;31189;38.790;-77.084;2022-12-22T06:14:15;102798.03;;;4.29;45.64
45441;BME280;31189;38.790;-77.084;2022-12-22T06:16:43;102793.38;;;4.18;45.30
45441;BME280;31189;38.790;-77.084;2022-12-22T06:19:11;102793.38;;;4.09;45.44
45441;BME280;31189;38.790;-77.084;2022-12-22T06:21:39;102796.31;;;4.12;45.04
45441;BME280;31189;38.790;-77.084;2022-12-22T06:24:07;102802.53;;;4.01;44.99
45441;BME280;31189;38.790;-77.084;2022-12-22T06:26:35;102806.76;;;3.36;46.39
45441;BME280;31189;38.790;-77.084;2022-12-22T06:29:03;102800.90;;;3.64;46.30
45441;BME280;31189;38.790;-77.084;2022-12-22T06:31:31;102791.89;;;3.15;47.92
45441;BME280;31189;38.790;-77.084;2022-12-22T06:33:59;102792.41;;;2.93;47.95
45441;BME280;31189;38.790;-77.084;2022-12-22T06:36:27;102787.74;;;3.14;47.95
45441;BME280;31189;38.790;-77.084;2022-12-22T06:38:55;102787.11;;;3.36;47.85
45441;BME280;31189;38.790;-77.084;2022-12-22T06:41:22;102790.79;;;2.23;49.10
45441;BME280;31189;38.790;-77.084;2022-12-22T06:43:51;102781.82;;;3.38;47.16
45441;BME280;31189;38.790;-77.084;2022-12-22T06:46:19;102767.69;;;4.22;44.95
45441;BME280;31189;38.790;-77.084;2022-12-22T06:48:47;102753.19;;;3.85;45.62
45441;BME280;31189;38.790;-77.084;2022-12-22T06:51:15;102748.39;;;3.59;46.42
45441;BME280;31189;38.790;-77.084;2022-12-22T06:53:42;102760.62;;;1.97;49.76
45441;BME280;31189;38.790;-77.084;2022-12-22T06:56:10;102765.45;;;4.35;44.85
45441;BME280;31189;38.790;-77.084;2022-12-22T06:58:38;102763.11;;;3.86;45.69
45441;BME280;31189;38.790;-77.084;2022-12-22T07:01:05;102760.78;;;4.29;45.41
45441;BME280;31189;38.790;-77.084;2022-12-22T07:03:33;102751.06;;;3.85;46.45
45441;BME280;31189;38.790;-77.084;2022-12-22T07:06:01;102747.58;;;4.74;45.38
45441;BME280;31189;38.790;-77.084;2022-12-22T07:08:30;102741.71;;;4.49;45.98
45441;BME280;31189;38.790;-77.084;2022-12-22T07:10:59;102734.42;;;3.60;47.43
45441;BME280;31189;38.790;-77.084;2022-12-22T07:13:28;102734.90;;;4.42;45.61
45441;BME280;31189;38.790;-77.084;2022-12-22T07:15:57;102746.99;;;3.33;47.60
45441;BME280;31189;38.790;-77.084;2022-12-22T07:18:24;102746.68;;;4.48;45.07
45441;BME280;31189;38.790;-77.084;2022-12-22T07:20:52;102753.38;;;4.48;45.13
45441;BME280;31189;38.790;-77.084;2022-12-22T07:23:21;102746.37;;;3.87;45.93
45441;BME280;31189;38.790;-77.084;2022-12-22T07:25:49;102746.22;;;5.01;45.46
45441;BME280;31189;38.790;-77.084;2022-12-22T07:28:17;102751.84;;;4.17;45.62
45441;BME280;31189;38.790;-77.084;2022-12-22T07:30:44;102753.65;;;4.36;46.25
45441;BME280;31189;38.790;-77.084;2022-12-22T07:33:12;102746.03;;;5.24;44.95
45441;BME280;31189;38.790;-77.084;2022-12-22T07:35:41;102748.94;;;5.10;45.41
45441;BME280;31189;38.790;-77.084;2022-12-22T07:38:09;102743.53;;;4.45;46.55
45441;BME280;31189;38.790;-77.084;2022-12-22T07:40:37;102738.85;;;5.34;46.05
45441;BME280;31189;38.790;-77.084;2022-12-22T07:43:05;102744.95;;;5.49;46.41
45441;BME280;31189;38.790;-77.084;2022-12-22T07:45:33;102746.32;;;4.94;45.88
45441;BME280;31189;38.790;-77.084;2022-12-22T07:48:02;102740.32;;;4.55;46.78
45441;BME280;31189;38.790;-77.084;2022-12-22T07:50:29;102739.12;;;5.36;45.67
45441;BME280;31189;38.790;-77.084;2022-12-22T07:52:59;102724.55;;;5.05;45.97
45441;BME280;31189;38.790;-77.084;2022-12-22T07:55:28;102718.49;;;5.23;45.81
45441;BME280;31189;38.790;-77.084;2022-12-22T07:57:57;102717.27;;;5.36;45.89
45441;BME280;31189;38.790;-77.084;2022-12-22T08:00:25;102711.53;;;5.69;45.10
45441;BME280;31189;38.790;-77.084;2022-12-22T08:02:54;102703.06;;;5.06;46.14
45441;BME280;31189;38.790;-77.084;2022-12-22T08:05:23;102703.88;;;5.63;46.15
45441;BME280;31189;38.790;-77.084;2022-12-22T08:07:52;102708.57;;;4.00;48.85
45441;BME280;31189;38.790;-77.084;2022-12-22T08:10:20;102706.08;;;4.47;47.49
45441;BME280;31189;38.790;-77.084;2022-12-22T08:12:47;102705.99;;;5.75;45.05
45441;BME280;31189;38.790;-77.084;2022-12-22T08:15:15;102701.82;;;5.43;44.85
45441;BME280;31189;38.790;-77.084;2022-12-22T08:17:43;102702.18;;;5.27;45.52
45441;BME280;31189;38.790;-77.084;2022-12-22T08:20:12;102704.37;;;5.51;45.63
45441;BME280;31189;38.790;-77.084;2022-12-22T08:22:39;102700.82;;;6.22;45.10
45441;BME280;31189;38.790;-77.084;2022-12-22T08:25:08;102691.54;;;5.61;45.60
45441;BME280;31189;38.790;-77.084;2022-12-22T08:27:41;102682.65;;;6.24;44.49
45441;BME280;31189;38.790;-77.084;2022-12-22T08:30:12;102684.55;;;6.30;44.58
45441;BME280;31189;38.790;-77.084;2022-12-22T08:32:41;102683.40;;;6.27;44.29
45441;BME280;31189;38.790;-77.084;2022-12-22T08:35:09;102674.21;;;5.89;44.34
45441;BME280;31189;38.790;-77.084;2022-12-22T08:37:40;102668.88;;;5.60;45.12
45441;BME280;31189;38.790;-77.084;2022-12-22T08:40:12;102662.24;;;6.03;45.19
45441;BME280;31189;38.790;-77.084;2022-12-22T08:42:41;102662.66;;;6.55;44.58
45441;BME280;31189;38.790;-77.084;2022-12-22T08:45:09;102661.48;;;6.70;43.79
45441;BME280;31189;38.790;-77.084;2022-12-22T08:47:38;102652.90;;;5.80;45.01
45441;BME280;31189;38.790;-77.084;2022-12-22T08:50:07;102642.60;;;6.31;44.82
45441;BME280;31189;38.790;-77.084;2022-12-22T08:52:35;102636.97;;;6.76;44.77
45441;BME280;31189;38.790;-77.084;2022-12-22T08:55:04;102617.39;;;6.36;44.79
45441;BME280;31189;38.790;-77.084;2022-12-22T08:57:31;102610.55;;;6.56;45.34
45441;BME280;31189;38.790;-77.084;2022-12-22T08:59:59;102617.22;;;6.07;45.34
45441;BME280;31189;38.790;-77.084;2022-12-22T09:02:27;102614.58;;;5.43;46.60
45441;BME280;31189;38.790;-77.084;2022-12-22T09:04:55;102616.15;;;6.46;45.57
45441;BME280;31189;38.790;-77.084;2022-12-22T09:07:22;102617.24;;;6.04;45.55
45441;BME280;31189;38.790;-77.084;2022-12-22T09:09:50;102619.26;;;5.97;45.95
45441;BME280;31189;38.790;-77.084;2022-12-22T09:12:18;102616.78;;;6.18;45.73
45441;BME280;31189;38.790;-77.084;2022-12-22T09:14:46;102615.86;;;6.85;44.52
45441;BME280;31189;38.790;-77.084;2022-12-22T09:17:19;102620.08;;;6.02;45.29
45441;BME280;31189;38.790;-77.084;2022-12-22T09:19:47;102615.49;;;6.30;45.42
45441;BME280;31189;38.790;-77.084;2022-12-22T09:22:15;102614.98;;;6.44;44.86
45441;BME280;31189;38.790;-77.084;2022-12-22T09:24:43;102608.33;;;6.35;44.91
45441;BME280;31189;38.790;-77.084;2022-12-22T09:27:11;102596.10;;;6.77;44.79
45441;BME280;31189;38.790;-77.084;2022-12-22T09:29:40;102597.11;;;6.54;45.53
45441;BME280;31189;38.790;-77.084;2022-12-22T09:32:07;102598.60;;;6.00;46.76
45441;BME280;31189;38.790;-77.084;2022-12-22T09:34:35;102594.02;;;6.64;46.20
45441;BME280;31189;38.790;-77.084;2022-12-22T09:37:03;102596.41;;;6.43;46.00
45441;BME280;31189;38.790;-77.084;2022-12-22T09:39:32;102597.13;;;6.70;46.55
45441;BME280;31189;38.790;-77.084;2022-12-22T09:42:00;102592.05;;;7.14;46.08
45441;BME280;31189;38.790;-77.084;2022-12-22T09:44:31;102576.44;;;6.94;45.59
45441;BME280;31189;38.790;-77.084;2022-12-22T09:47:02;102573.71;;;6.95;45.68
45441;BME280;31189;38.790;-77.084;2022-12-22T09:49:31;102579.21;;;6.15;47.39
45441;BME280;31189;38.790;-77.084;2022-12-22T09:52:01;102575.48;;;6.81;46.49
45441;BME280;31189;38.790;-77.084;2022-12-22T09:54:29;102578.85;;;6.38;46.69
45441;BME280;31189;38.790;-77.084;2022-12-22T09:56:57;102580.95;;;6.45;47.18
45441;BME280;31189;38.790;-77.084;2022-12-22T09:59:26;102574.77;;;6.37;47.16
45441;BME280;31189;38.790;-77.084;2022-12-22T10:02:01;102563.12;;;6.66;46.77
45441;BME280;31189;38.790;-77.084;2022-12-22T10:04:43;102555.26;;;6.60;47.57
45441;BME280;31189;38.790;-77.084;2022-12-22T10:07:23;102557.91;;;6.60;47.50
45441;BME280;31189;38.790;-77.084;2022-12-22T10:09:53;102561.73;;;7.04;47.06
45441;BME280;31189;38.790;-77.084;2022-12-22T10:12:23;102555.89;;;6.59;47.93
45441;BME280;31189;38.790;-77.084;2022-12-22T10:14:53;102559.22;;;6.65;48.36
45441;BME280;31189;38.790;-77.084;2022-12-22T10:17:24;102560.79;;;6.20;49.10
45441;BME280;31189;38.790;-77.084;2022-12-22T10:20:04;102544.81;;;6.33;48.38
45441;BME280;31189;38.790;-77.084;2022-12-22T10:22:35;102537.56;;;6.01;50.24
45441;BME280;31189;38.790;-77.084;2022-12-22T10:25:05;102533.98;;;6.14;50.08
45441;BME280;31189;38.790;-77.084;2022-12-22T10:27:36;102529.63;;;5.35;50.94
45441;BME280;31189;38.790;-77.084;2022-12-22T10:30:22;102524.79;;;6.16;50.14
45441;BME280;31189;38.790;-77.084;2022-12-22T10:33:02;102527.39;;;6.39;49.21
45441;BME280;31189;38.790;-77.084;2022-12-22T10:35:49;102515.90;;;6.17;49.30
45441;BME280;31189;38.790;-77.084;2022-12-22T10:38:21;102501.47;;;6.16;49.46
45441;BME280;31189;38.790;-77.084;2022-12-22T10:40:53;102506.14;;;6.19;49.46
45441;BME280;31189;38.790;-77.084;2022-12-22T10:43:24;102514.65;;;5.91;50.41
45441;BME280;31189;38.790;-77.084;2022-12-22T10:45:55;102514.39;;;5.65;51.97
45441;BME280;31189;38.790;-77.084;2022-12-22T10:48:27;102515.57;;;6.07;51.92
45441;BME280;31189;38.790;-77.084;2022-12-22T10:50:57;102509.99;;;5.83;52.74
45441;BME280;31189;38.790;-77.084;2022-12-22T10:53:39;102509.45;;;5.65;52.97
45441;BME280;31189;38.790;-77.084;2022-12-22T10:56:20;102505.28;;;6.07;52.21
45441;BME280;31189;38.790;-77.084;2022-12-22T10:58:50;102502.07;;;5.89;53.62
45441;BME280;31189;38.790;-77.084;2022-12-22T11:01:29;102497.97;;;5.55;53.91
45441;BME280;31189;38.790;-77.084;2022-12-22T11:03:58;102502.64;;;5.33;54.20
45441;BME280;31189;38.790;-77.084;2022-12-22T11:06:43;102497.60;;;4.90;56.24
45441;BME280;31189;38.790;-77.084;2022-12-22T11:09:11;102496.40;;;5.29;55.46
45441;BME280;31189;38.790;-77.084;2022-12-22T11:11:43;102496.91;;;5.17;55.64
45441;BME280;31189;38.790;-77.084;2022-12-22T11:14:21;102497.37;;;4.88;57.98
45441;BME280;31189;38.790;-77.084;2022-12-22T11:16:57;102479.08;;;5.30;58.84
45441;BME280;31189;38.790;-77.084;2022-12-22T11:19:39;102470.38;;;4.74;60.79
45441;BME280;31189;38.790;-77.084;2022-12-22T11:22:20;102467.86;;;4.96;60.07
45441;BME280;31189;38.790;-77.084;2022-12-22T11:25:05;102468.60;;;5.45;58.95
45441;BME280;31189;38.790;-77.084;2022-12-22T11:27:42;102461.15;;;5.56;58.65
45441;BME280;31189;38.790;-77.084;2022-12-22T11:30:19;102460.66;;;5.94;57.42
45441;BME280;31189;38.790;-77.084;2022-12-22T11:32:59;102459.34;;;5.53;59.27
45441;BME280;31189;38.790;-77.084;2022-12-22T11:35:50;102470.09;;;5.59;59.76
45441;BME280;31189;38.790;-77.084;2022-12-22T11:38:34;102463.83;;;5.61;58.32
45441;BME280;31189;38.790;-77.084;2022-12-22T11:41:25;102452.08;;;5.83;57.31
45441;BME280;31189;38.790;-77.084;2022-12-22T11:44:18;102429.43;;;5.51;58.12
45441;BME280;31189;38.790;-77.084;2022-12-22T11:47:01;102404.67;;;5.12;59.62
45441;BME280;31189;38.790;-77.084;2022-12-22T11:50:00;102391.72;;;6.61;56.94
45441;BME280;31189;38.790;-77.084;2022-12-22T11:52:44;102392.54;;;5.81;58.02
45441;BME280;31189;38.790;-77.084;2022-12-22T11:55:28;102385.16;;;5.31;58.06
45441;BME280;31189;38.790;-77.084;2022-12-22T11:58:21;102383.90;;;4.34;61.02
45441;BME280;31189;38.790;-77.084;2022-12-22T12:01:01;102368.26;;;4.92;60.84
45441;BME280;31189;38.790;-77.084;2022-12-22T12:03:51;102350.40;;;4.61;61.67
45441;BME280;31189;38.790;-77.084;2022-12-22T12:06:49;102333.16;;;4.56;61.49
45441;BME280;31189;38.790;-77.084;2022-12-22T12:09:40;102331.63;;;5.35;63.00
45441;BME280;31189;38.790;-77.084;2022-12-22T12:12:24;102332.25;;;5.41;63.56
45441;BME280;31189;38.790;-77.084;2022-12-22T12:15:14;102330.10;;;5.87;61.46
45441;BME280;31189;38.790;-77.084;2022-12-22T12:18:02;102333.59;;;5.76;59.84
45441;BME280;31189;38.790;-77.084;2022-12-22T12:20:45;102338.18;;;5.87;60.02
45441;BME280;31189;38.790;-77.084;2022-12-22T12:23:38;102341.09;;;5.98;58.25
45441;BME280;31189;38.790;-77.084;2022-12-22T12:26:18;102337.35;;;6.83;57.10
45441;BME280;31189;38.790;-77.084;2022-12-22T12:29:05;102326.04;;;6.21;58.10
45441;BME280;31189;38.790;-77.084;2022-12-22T12:31:47;102314.14;;;6.31;58.07
45441;BME280;31189;38.790;-77.084;2022-12-22T12:34:22;102331.02;;;5.66;58.68
45441;BME280;31189;38.790;-77.084;2022-12-22T12:36:55;102343.74;;;6.12;58.31
45441;BME280;31189;38.790;-77.084;2022-12-22T12:39:38;102348.25;;;7.00;56.47
45441;BME280;31189;38.790;-77.084;2022-12-22T12:42:25;102318.96;;;6.52;56.31
45441;BME280;31189;38.790;-77.084;2022-12-22T12:45:00;102292.29;;;6.17;57.48
45441;BME280;31189;38.790;-77.084;2022-12-22T12:47:30;102283.53;;;5.53;61.42
45441;BME280;31189;38.790;-77.084;2022-12-22T12:50:30;102295.73;;;6.43;59.17
45441;BME280;31189;38.790;-77.084;2022-12-22T12:53:09;102309.83;;;6.25;60.68
45441;BME280;31189;38.790;-77.084;2022-12-22T12:56:02;102302.14;;;5.56;61.23
45441;BME280;31189;38.790;-77.084;2022-12-22T12:58:50;102278.66;;;5.36;63.41
45441;BME280;31189;38.790;-77.084;2022-12-22T13:02:31;102261.23;;;5.62;63.54
45441;BME280;31189;38.790;-77.084;2022-12-22T13:05:26;102244.25;;;6.43;64.10
45441;BME280;31189;38.790;-77.084;2022-12-22T13:08:32;102223.52;;;5.22;69.03
45441;BME280;31189;38.790;-77.084;2022-12-22T13:11:42;102220.27;;;4.67;70.64